Riverside, Michigan
Current Conditions -  °F | °C
As of 7:19 AM on Friday 19 Dec 2014 (Local Time) from KBEH Reporting Station
Overcast Overcast  
Wind Chill: 22°   Ceiling: 3000
Heat Index: 27°   Visibility: 10mi
Dew Point: 23°   Wind: 5mph
Humidity: 85%   Direction: 80°E
Pressure: 30.26"   Gusts: NA
Location:  42.18°N, 86.36°W
Report Text: KBEH 191219Z AUTO 08004KT 10SM OVC030 M03/M05 A3026 RMK AO2 T10281050
Loading
Personal Weather Stations






























Interactive Weather Map New forecast layout! Learn more

10-Day Weather Forecast

Advertisements
Track Severe Weather on mobile